Time,TemperatureF,DewpointF,PressureIn,WindDirection,WindDirectionDegrees,WindSpeedMPH,WindSpeedGustMPH,Humidity,HourlyPrecipIn,Conditions,Clouds,dailyrainin,SolarRadiationWatts/m^2,SoftwareType,DateUTC
2013-09-29 00:07:00,54.4,53.0,30.33,East,96,0.0,1.0,94,0.00,,,0.00,0,weatherlink.com 1.10,2013-09-29 04:07:00,
2013-09-29 00:22:00,54.1,53.0,30.33,East,96,0.0,1.0,94,0.00,,,0.00,0,weatherlink.com 1.10,2013-09-29 04:22:00,
2013-09-29 00:37:00,53.7,52.0,30.33,East,96,0.0,0.0,94,0.00,,,0.00,0,weatherlink.com 1.10,2013-09-29 04:37:00,
2013-09-29 00:52:00,53.4,52.0,30.33,East,96,0.0,0.0,94,0.00,,,0.00,0,weatherlink.com 1.10,2013-09-29 04:52:00,
2013-09-29 01:07:00,53.4,52.0,30.33,East,94,0.0,1.0,94,0.00,,,0.00,0,weatherlink.com 1.10,2013-09-29 05:07:00,
2013-09-29 01:22:00,52.8,51.0,30.32,East,92,1.0,2.0,94,0.00,,,0.00,0,weatherlink.com 1.10,2013-09-29 05:22:00,
2013-09-29 01:37:00,52.3,51.0,30.32,NNW,338,0.0,3.0,95,0.00,,,0.00,0,weatherlink.com 1.10,2013-09-29 05:37:00,
2013-09-29 01:52:00,52.3,51.0,30.32,NNW,331,1.0,2.0,96,0.00,,,0.00,0,weatherlink.com 1.10,2013-09-29 05:52:00,
2013-09-29 02:07:00,52.1,51.0,30.31,NNW,331,0.0,2.0,96,0.00,,,0.00,0,weatherlink.com 1.10,2013-09-29 06:07:00,
2013-09-29 02:22:00,51.8,51.0,30.31,NNW,331,0.0,1.0,96,0.00,,,0.00,0,weatherlink.com 1.10,2013-09-29 06:22:00,
2013-09-29 02:37:00,51.8,51.0,30.31,NW,318,1.0,2.0,96,0.01,,,0.01,0,weatherlink.com 1.10,2013-09-29 06:37:00,
2013-09-29 02:52:00,51.7,51.0,30.30,NW,319,0.0,1.0,96,0.01,,,0.01,0,weatherlink.com 1.10,2013-09-29 06:52:00,
2013-09-29 03:07:00,51.5,50.0,30.30,NW,319,0.0,1.0,96,0.01,,,0.01,0,weatherlink.com 1.10,2013-09-29 07:07:00,
2013-09-29 03:22:00,51.2,50.0,30.30,NW,319,0.0,1.0,96,0.01,,,0.01,0,weatherlink.com 1.10,2013-09-29 07:22:00,
2013-09-29 03:37:00,50.8,50.0,30.29,NW,320,2.0,3.0,96,0.00,,,0.01,0,weatherlink.com 1.10,2013-09-29 07:37:00,
2013-09-29 03:52:00,50.2,49.0,30.29,NW,322,0.0,3.0,96,0.00,,,0.01,0,weatherlink.com 1.10,2013-09-29 07:52:00,
2013-09-29 04:07:00,50.1,49.0,30.29,NW,322,1.0,2.0,97,0.00,,,0.01,0,weatherlink.com 1.10,2013-09-29 08:07:00,
2013-09-29 04:22:00,50.3,50.0,30.30,NW,322,0.0,1.0,97,0.00,,,0.01,0,weatherlink.com 1.10,2013-09-29 08:22:00,
2013-09-29 04:37:00,50.1,49.0,30.29,NW,322,0.0,2.0,97,0.00,,,0.01,0,weatherlink.com 1.10,2013-09-29 08:37:00,
2013-09-29 04:52:00,50.1,49.0,30.29,NW,322,0.0,0.0,97,0.00,,,0.01,0,weatherlink.com 1.10,2013-09-29 08:52:00,
2013-09-29 05:07:00,49.9,49.0,30.29,NW,322,0.0,2.0,97,0.00,,,0.01,0,weatherlink.com 1.10,2013-09-29 09:07:00,
2013-09-29 05:22:00,49.5,49.0,30.29,NW,322,0.0,2.0,97,0.00,,,0.01,0,weatherlink.com 1.10,2013-09-29 09:22:00,
2013-09-29 05:37:00,49.4,49.0,30.29,NW,322,0.0,1.0,97,0.00,,,0.01,0,weatherlink.com 1.10,2013-09-29 09:37:00,
2013-09-29 05:52:00,49.6,49.0,30.30,NW,322,0.0,2.0,97,0.00,,,0.01,0,weatherlink.com 1.10,2013-09-29 09:52:00,
2013-09-29 06:07:00,49.8,49.0,30.29,NW,322,0.0,2.0,97,0.00,,,0.01,0,weatherlink.com 1.10,2013-09-29 10:07:00,
2013-09-29 06:22:00,49.9,49.0,30.29,NW,322,0.0,0.0,97,0.00,,,0.01,0,weatherlink.com 1.10,2013-09-29 10:22:00,
2013-09-29 06:37:00,49.9,49.0,30.30,NW,322,2.0,3.0,97,0.00,,,0.01,0,weatherlink.com 1.10,2013-09-29 10:37:00,
2013-09-29 06:52:00,49.9,49.0,30.30,NW,321,0.0,2.0,97,0.00,,,0.01,7,weatherlink.com 1.10,2013-09-29 10:52:00,
2013-09-29 07:07:00,49.8,49.0,30.30,NW,321,0.0,0.0,97,0.00,,,0.01,16,weatherlink.com 1.10,2013-09-29 11:07:00,
2013-09-29 07:22:00,50.0,49.0,30.30,NE,44,0.0,3.0,97,0.00,,,0.01,35,weatherlink.com 1.10,2013-09-29 11:22:00,
2013-09-29 07:37:00,50.1,49.0,30.30,WNW,286,0.0,2.0,97,0.00,,,0.01,40,weatherlink.com 1.10,2013-09-29 11:37:00,
2013-09-29 07:52:00,50.2,49.0,30.29,West,281,1.0,2.0,97,0.00,,,0.01,74,weatherlink.com 1.10,2013-09-29 11:52:00,
2013-09-29 08:07:00,50.4,50.0,30.29,West,281,1.0,2.0,97,0.00,,,0.01,84,weatherlink.com 1.10,2013-09-29 12:07:00,
2013-09-29 08:22:00,50.9,50.0,30.29,WNW,283,0.0,3.0,97,0.00,,,0.01,98,weatherlink.com 1.10,2013-09-29 12:22:00,
2013-09-29 08:37:00,51.4,51.0,30.30,WNW,283,0.0,1.0,98,0.00,,,0.01,107,weatherlink.com 1.10,2013-09-29 12:37:00,
2013-09-29 08:52:00,52.3,52.0,30.30,West,279,0.0,2.0,98,0.00,,,0.01,120,weatherlink.com 1.10,2013-09-29 12:52:00,
2013-09-29 09:07:00,52.6,52.0,30.31,West,279,0.0,2.0,98,0.00,,,0.01,104,weatherlink.com 1.10,2013-09-29 13:07:00,
2013-09-29 09:22:00,53.0,53.0,30.31,West,281,1.0,3.0,98,0.00,,,0.01,162,weatherlink.com 1.10,2013-09-29 13:22:00,
2013-09-29 09:37:00,53.7,53.0,30.31,West,278,2.0,3.0,98,0.00,,,0.01,220,weatherlink.com 1.10,2013-09-29 13:37:00,
2013-09-29 09:52:00,53.5,53.0,30.30,WNW,286,0.0,4.0,98,0.00,,,0.01,241,weatherlink.com 1.10,2013-09-29 13:52:00,
2013-09-29 10:08:00,54.1,54.0,30.31,NW,305,1.0,4.0,98,0.00,,,0.01,292,weatherlink.com 1.10,2013-09-29 14:08:00,
2013-09-29 10:23:00,55.4,55.0,30.30,NW,322,2.0,3.0,98,0.00,,,0.01,482,weatherlink.com 1.10,2013-09-29 14:23:00,
2013-09-29 10:38:00,55.9,55.0,30.30,NW,319,3.0,5.0,98,0.00,,,0.01,606,weatherlink.com 1.10,2013-09-29 14:38:00,
2013-09-29 10:53:00,57.5,56.0,30.29,South,176,1.0,4.0,96,0.00,,,0.01,640,weatherlink.com 1.10,2013-09-29 14:53:00,
2013-09-29 11:08:00,59.7,53.0,30.29,ESE,118,3.0,9.0,78,0.00,,,0.01,668,weatherlink.com 1.10,2013-09-29 15:08:00,
2013-09-29 11:23:00,61.8,51.0,30.28,ENE,69,4.0,8.0,67,0.00,,,0.01,686,weatherlink.com 1.10,2013-09-29 15:23:00,
2013-09-29 11:38:00,62.9,51.0,30.28,NE,40,6.0,7.0,66,0.00,,,0.01,705,weatherlink.com 1.10,2013-09-29 15:38:00,
2013-09-29 11:53:00,62.8,50.0,30.27,ESE,109,0.0,9.0,63,0.00,,,0.01,715,weatherlink.com 1.10,2013-09-29 15:53:00,
2013-09-29 12:08:00,63.8,49.0,30.27,East,81,6.0,8.0,60,0.00,,,0.01,722,weatherlink.com 1.10,2013-09-29 16:08:00,
2013-09-29 12:23:00,64.0,47.0,30.26,ENE,67,3.0,9.0,55,0.00,,,0.01,729,weatherlink.com 1.10,2013-09-29 16:23:00,
2013-09-29 12:38:00,64.1,48.0,30.26,SE,142,6.0,11.0,57,0.00,,,0.01,731,weatherlink.com 1.10,2013-09-29 16:38:00,
2013-09-29 12:53:00,64.0,48.0,30.26,East,96,6.0,9.0,56,0.00,,,0.01,728,weatherlink.com 1.10,2013-09-29 16:53:00,
2013-09-29 13:08:00,64.4,46.0,30.26,SSE,165,3.0,9.0,52,0.00,,,0.01,722,weatherlink.com 1.10,2013-09-29 17:08:00,
2013-09-29 13:23:00,64.5,47.0,30.25,NE,44,7.0,10.0,53,0.00,,,0.01,714,weatherlink.com 1.10,2013-09-29 17:23:00,
2013-09-29 13:38:00,64.4,46.0,30.25,ESE,111,4.0,10.0,52,0.00,,,0.01,703,weatherlink.com 1.10,2013-09-29 17:38:00,
2013-09-29 13:53:00,64.8,46.0,30.24,East,99,7.0,11.0,51,0.00,,,0.01,686,weatherlink.com 1.10,2013-09-29 17:53:00,
2013-09-29 14:08:00,65.1,47.0,30.24,SE,140,6.0,10.0,52,0.00,,,0.01,664,weatherlink.com 1.10,2013-09-29 18:08:00,
2013-09-29 14:23:00,65.0,49.0,30.23,NE,56,2.0,9.0,57,0.00,,,0.01,643,weatherlink.com 1.10,2013-09-29 18:23:00,
2013-09-29 14:38:00,64.9,50.0,30.23,SE,130,4.0,10.0,59,0.00,,,0.01,613,weatherlink.com 1.10,2013-09-29 18:38:00,
2013-09-29 14:53:00,64.5,50.0,30.22,ESE,104,4.0,11.0,60,0.00,,,0.01,584,weatherlink.com 1.10,2013-09-29 18:53:00,
2013-09-29 15:08:00,64.4,50.0,30.22,East,82,5.0,9.0,59,0.00,,,0.01,552,weatherlink.com 1.10,2013-09-29 19:08:00,
2013-09-29 15:23:00,64.5,50.0,30.21,SE,124,2.0,9.0,59,0.00,,,0.01,515,weatherlink.com 1.10,2013-09-29 19:23:00,
2013-09-29 15:38:00,64.2,50.0,30.21,ESE,118,5.0,11.0,61,0.00,,,0.01,475,weatherlink.com 1.10,2013-09-29 19:38:00,
2013-09-29 15:53:00,63.6,51.0,30.21,East,88,3.0,12.0,64,0.00,,,0.01,438,weatherlink.com 1.10,2013-09-29 19:53:00,
2013-09-29 16:08:00,63.1,51.0,30.21,SE,133,6.0,13.0,66,0.00,,,0.01,396,weatherlink.com 1.10,2013-09-29 20:08:00,
2013-09-29 16:23:00,62.6,52.0,30.21,SE,142,3.0,11.0,68,0.00,,,0.01,352,weatherlink.com 1.10,2013-09-29 20:23:00,
2013-09-29 16:38:00,62.3,52.0,30.21,East,94,5.0,11.0,68,0.00,,,0.01,309,weatherlink.com 1.10,2013-09-29 20:38:00,
2013-09-29 16:53:00,62.2,51.0,30.21,East,90,8.0,9.0,66,0.00,,,0.01,262,weatherlink.com 1.10,2013-09-29 20:53:00,
2013-09-29 17:08:00,62.0,51.0,30.20,SE,144,4.0,10.0,68,0.00,,,0.01,204,weatherlink.com 1.10,2013-09-29 21:08:00,
2013-09-29 17:23:00,61.2,51.0,30.21,SE,137,4.0,10.0,70,0.00,,,0.01,146,weatherlink.com 1.10,2013-09-29 21:23:00,
2013-09-29 17:38:00,60.9,51.0,30.21,ESE,103,5.0,8.0,69,0.00,,,0.01,91,weatherlink.com 1.10,2013-09-29 21:38:00,
2013-09-29 17:53:00,60.3,51.0,30.21,ESE,114,4.0,9.0,71,0.00,,,0.01,46,weatherlink.com 1.10,2013-09-29 21:53:00,
2013-09-29 18:09:00,59.6,51.0,30.21,SE,138,5.0,7.0,74,0.00,,,0.01,18,weatherlink.com 1.10,2013-09-29 22:09:00,
2013-09-29 18:24:00,58.9,52.0,30.20,ESE,111,5.0,8.0,77,0.00,,,0.01,9,weatherlink.com 1.10,2013-09-29 22:24:00,
2013-09-29 18:39:00,58.3,52.0,30.20,ESE,112,5.0,7.0,79,0.00,,,0.01,0,weatherlink.com 1.10,2013-09-29 22:39:00,
2013-09-29 18:54:00,57.9,52.0,30.20,ESE,115,2.0,6.0,81,0.00,,,0.01,0,weatherlink.com 1.10,2013-09-29 22:54:00,
2013-09-29 19:09:00,57.6,52.0,30.20,SE,131,4.0,5.0,82,0.00,,,0.01,0,weatherlink.com 1.10,2013-09-29 23:09:00,
2013-09-29 19:24:00,57.3,52.0,30.20,SE,139,4.0,5.0,82,0.00,,,0.01,0,weatherlink.com 1.10,2013-09-29 23:24:00,
2013-09-29 19:39:00,57.2,52.0,30.20,SE,134,1.0,6.0,83,0.00,,,0.01,0,weatherlink.com 1.10,2013-09-29 23:39:00,
2013-09-29 19:54:00,57.0,52.0,30.21,ESE,103,1.0,5.0,84,0.00,,,0.01,0,weatherlink.com 1.10,2013-09-29 23:54:00,
2013-09-29 20:09:00,56.9,53.0,30.20,ESE,113,1.0,7.0,85,0.00,,,0.01,0,weatherlink.com 1.10,2013-09-30 00:09:00,
2013-09-29 20:24:00,56.8,52.0,30.20,SE,126,1.0,5.0,85,0.00,,,0.01,0,weatherlink.com 1.10,2013-09-30 00:24:00,
2013-09-29 20:39:00,56.6,53.0,30.20,SE,136,1.0,3.0,86,0.00,,,0.01,0,weatherlink.com 1.10,2013-09-30 00:39:00,
2013-09-29 20:54:00,56.3,53.0,30.19,SE,135,1.0,2.0,87,0.00,,,0.01,0,weatherlink.com 1.10,2013-09-30 00:54:00,
2013-09-29 21:09:00,56.0,53.0,30.19,SE,134,0.0,2.0,88,0.00,,,0.01,0,weatherlink.com 1.10,2013-09-30 01:09:00,
2013-09-29 21:24:00,55.9,52.0,30.19,SE,134,0.0,2.0,88,0.00,,,0.01,0,weatherlink.com 1.10,2013-09-30 01:24:00,
2013-09-29 21:39:00,55.4,52.0,30.19,SE,134,0.0,1.0,88,0.00,,,0.01,0,weatherlink.com 1.10,2013-09-30 01:39:00,
2013-09-29 21:54:00,54.6,52.0,30.19,SE,134,0.0,1.0,89,0.00,,,0.01,0,weatherlink.com 1.10,2013-09-30 01:54:00,
2013-09-29 22:09:00,54.0,51.0,30.19,SE,134,1.0,1.0,90,0.00,,,0.01,0,weatherlink.com 1.10,2013-09-30 02:09:00,
2013-09-29 22:24:00,53.5,51.0,30.19,SE,134,1.0,2.0,91,0.00,,,0.01,0,weatherlink.com 1.10,2013-09-30 02:24:00,
2013-09-29 22:54:00,52.4,50.0,30.19,SE,128,1.0,2.0,92,0.00,,,0.01,0,weatherlink.com 1.10,2013-09-30 02:54:00,
2013-09-29 23:09:00,52.2,50.0,30.19,NE,53,0.0,2.0,92,0.00,,,0.01,0,weatherlink.com 1.10,2013-09-30 03:09:00,
2013-09-29 23:24:00,51.9,50.0,30.19,North,351,2.0,3.0,92,0.00,,,0.01,0,weatherlink.com 1.10,2013-09-30 03:24:00,
2013-09-29 23:39:00,51.6,50.0,30.19,North,349,1.0,3.0,93,0.00,,,0.01,0,weatherlink.com 1.10,2013-09-30 03:39:00,
2013-09-29 23:54:00,51.4,50.0,30.19,WNW,302,1.0,5.0,93,0.00,,,0.01,0,weatherlink.com 1.10,2013-09-30 03:54:00,